Time,TemperatureF,DewpointF,PressureIn,WindDirection,WindDirectionDegrees,WindSpeedMPH,WindSpeedGustMPH,Humidity,HourlyPrecipIn,Conditions,Clouds,dailyrainin,SoftwareType,DateUTC
2013-07-09 00:02:00,77.0,73.0,30.06,South,186,0.0,1.0,88,0.00,,,0.00,,2013-07-09 05:02:00,
2013-07-09 00:11:00,77.0,73.0,30.06,South,186,0.0,1.0,88,0.00,,,0.00,,2013-07-09 05:11:00,
2013-07-09 00:22:00,77.0,73.0,30.06,South,186,0.0,2.0,88,0.00,,,0.00,,2013-07-09 05:22:00,
2013-07-09 00:33:00,77.0,73.0,30.06,SSE,166,0.0,4.0,87,0.00,,,0.00,,2013-07-09 05:33:00,
2013-07-09 00:42:00,77.0,73.0,30.06,SSE,166,0.0,4.0,87,0.00,,,0.00,,2013-07-09 05:42:00,
2013-07-09 00:52:00,77.0,73.0,30.06,South,186,0.0,4.0,87,0.00,,,0.00,,2013-07-09 05:52:00,
2013-07-09 01:01:00,77.0,73.0,30.06,South,187,3.0,6.0,87,0.00,,,0.00,,2013-07-09 06:01:00,
2013-07-09 01:11:00,77.0,73.0,30.06,South,187,3.0,6.0,87,0.00,,,0.00,,2013-07-09 06:11:00,
2013-07-09 01:22:00,77.0,73.0,30.06,SW,222,3.0,7.0,87,0.00,,,0.00,,2013-07-09 06:22:00,
2013-07-09 01:33:00,77.0,72.0,30.06,SSW,196,2.0,6.0,86,0.00,,,0.00,,2013-07-09 06:33:00,
2013-07-09 01:43:00,77.0,72.0,30.06,SSW,196,2.0,6.0,86,0.00,,,0.00,,2013-07-09 06:43:00,
2013-07-09 01:53:00,77.0,72.0,30.06,South,186,3.0,7.0,86,0.00,,,0.00,,2013-07-09 06:53:00,
2013-07-09 02:02:00,77.0,72.0,30.06,South,188,2.0,7.0,86,0.00,,,0.00,,2013-07-09 07:02:00,
2013-07-09 02:12:00,77.0,72.0,30.06,South,188,2.0,7.0,86,0.00,,,0.00,,2013-07-09 07:12:00,
2013-07-09 02:22:00,77.0,72.0,30.06,South,187,2.0,5.0,86,0.00,,,0.00,,2013-07-09 07:22:00,
2013-07-09 02:34:00,77.0,73.0,30.05,SSW,200,2.0,5.0,87,0.00,,,0.00,,2013-07-09 07:34:00,
2013-07-09 02:43:00,77.0,73.0,30.05,SSW,200,2.0,5.0,87,0.00,,,0.00,,2013-07-09 07:43:00,
2013-07-09 02:53:00,77.0,73.0,30.05,SSW,192,0.0,4.0,87,0.00,,,0.00,,2013-07-09 07:53:00,
2013-07-09 03:01:00,77.0,73.0,30.05,SSW,192,0.0,1.0,88,0.00,,,0.00,,2013-07-09 08:01:00,
2013-07-09 03:11:00,77.0,73.0,30.05,SSW,192,0.0,1.0,88,0.00,,,0.00,,2013-07-09 08:11:00,
2013-07-09 03:22:00,76.0,72.0,30.05,SSW,192,0.0,1.0,88,0.00,,,0.00,,2013-07-09 08:22:00,
2013-07-09 03:33:00,76.0,73.0,30.05,SSW,192,0.0,0.0,89,0.00,,,0.00,,2013-07-09 08:33:00,
2013-07-09 03:43:00,76.0,73.0,30.05,SSW,192,0.0,0.0,89,0.00,,,0.00,,2013-07-09 08:43:00,
2013-07-09 03:52:00,76.0,73.0,30.05,SSW,192,0.0,1.0,90,0.00,,,0.00,,2013-07-09 08:52:00,
2013-07-09 04:02:00,76.0,73.0,30.05,SSW,192,0.0,1.0,90,0.00,,,0.00,,2013-07-09 09:02:00,
2013-07-09 04:12:00,76.0,73.0,30.05,SSW,192,0.0,1.0,90,0.00,,,0.00,,2013-07-09 09:12:00,
2013-07-09 04:22:00,76.0,73.0,30.05,SSW,193,0.0,1.0,90,0.00,,,0.00,,2013-07-09 09:22:00,
2013-07-09 04:34:00,76.0,73.0,30.05,SSW,193,0.0,1.0,90,0.00,,,0.00,,2013-07-09 09:34:00,
2013-07-09 04:42:00,76.0,73.0,30.05,SSW,193,0.0,1.0,90,0.00,,,0.00,,2013-07-09 09:42:00,
2013-07-09 04:53:00,76.0,73.0,30.05,SSW,193,0.0,1.0,90,0.00,,,0.00,,2013-07-09 09:53:00,
2013-07-09 05:01:00,76.0,73.0,30.05,SSW,193,0.0,1.0,91,0.00,,,0.00,,2013-07-09 10:01:00,
2013-07-09 05:11:00,76.0,73.0,30.05,SSW,193,0.0,1.0,91,0.00,,,0.00,,2013-07-09 10:11:00,
2013-07-09 05:22:00,76.0,73.0,30.06,SSW,193,0.0,2.0,91,0.00,,,0.00,,2013-07-09 10:22:00,
2013-07-09 05:33:00,76.0,73.0,30.06,SSW,193,0.0,2.0,91,0.00,,,0.00,,2013-07-09 10:33:00,
2013-07-09 05:42:00,76.0,73.0,30.06,SSW,193,0.0,2.0,91,0.00,,,0.00,,2013-07-09 10:42:00,
2013-07-09 05:52:00,75.0,72.0,30.06,WNW,285,0.0,2.0,91,0.00,,,0.00,,2013-07-09 10:52:00,
2013-07-09 06:01:00,75.0,72.0,30.06,South,177,0.0,2.0,91,0.00,,,0.00,,2013-07-09 11:01:00,
2013-07-09 06:11:00,75.0,72.0,30.06,South,177,0.0,2.0,91,0.00,,,0.00,,2013-07-09 11:11:00,
2013-07-09 06:22:00,75.0,72.0,30.06,South,177,1.0,4.0,91,0.00,,,0.00,,2013-07-09 11:22:00,
2013-07-09 06:33:00,76.0,73.0,30.06,SSW,209,1.0,4.0,91,0.00,,,0.00,,2013-07-09 11:33:00,
2013-07-09 06:42:00,76.0,73.0,30.06,SSW,209,1.0,4.0,91,0.00,,,0.00,,2013-07-09 11:42:00,
2013-07-09 06:53:00,76.0,73.0,30.06,SSW,194,0.0,2.0,90,0.00,,,0.00,,2013-07-09 11:53:00,
2013-07-09 07:02:00,76.0,73.0,30.06,South,185,1.0,5.0,90,0.00,,,0.00,,2013-07-09 12:02:00,
2013-07-09 07:11:00,76.0,73.0,30.06,South,185,1.0,5.0,90,0.00,,,0.00,,2013-07-09 12:11:00,
2013-07-09 07:22:00,76.0,73.0,30.06,SSW,212,1.0,5.0,90,0.00,,,0.00,,2013-07-09 12:22:00,
2013-07-09 07:33:00,76.0,73.0,30.06,South,189,3.0,6.0,89,0.00,,,0.00,,2013-07-09 12:33:00,
2013-07-09 07:43:00,76.0,73.0,30.06,South,189,3.0,6.0,89,0.00,,,0.00,,2013-07-09 12:43:00,
2013-07-09 07:53:00,77.0,73.0,30.06,South,182,2.0,6.0,88,0.00,,,0.00,,2013-07-09 12:53:00,
2013-07-09 08:01:00,77.0,73.0,30.06,South,188,0.0,5.0,88,0.00,,,0.00,,2013-07-09 13:01:00,
2013-07-09 08:11:00,77.0,73.0,30.06,South,188,0.0,5.0,88,0.00,,,0.00,,2013-07-09 13:11:00,
2013-07-09 08:22:00,77.0,73.0,30.07,South,189,1.0,5.0,88,0.00,,,0.00,,2013-07-09 13:22:00,
2013-07-09 08:33:00,78.0,74.0,30.07,South,179,1.0,5.0,87,0.00,,,0.00,,2013-07-09 13:33:00,
2013-07-09 08:43:00,78.0,74.0,30.07,South,179,1.0,5.0,87,0.00,,,0.00,,2013-07-09 13:43:00,
2013-07-09 08:53:00,79.0,75.0,30.07,SSW,192,1.0,4.0,87,0.00,,,0.00,,2013-07-09 13:53:00,
2013-07-09 09:01:00,79.0,74.0,30.07,South,190,2.0,6.0,86,0.00,,,0.00,,2013-07-09 14:01:00,
2013-07-09 09:11:00,79.0,74.0,30.07,South,190,2.0,6.0,86,0.00,,,0.00,,2013-07-09 14:11:00,
2013-07-09 09:22:00,79.0,74.0,30.06,South,182,2.0,7.0,86,0.00,,,0.00,,2013-07-09 14:22:00,
2013-07-09 09:34:00,80.0,76.0,30.06,SSW,206,2.0,6.0,87,0.00,,,0.00,,2013-07-09 14:34:00,
2013-07-09 09:43:00,80.0,76.0,30.06,SSW,206,2.0,6.0,87,0.00,,,0.00,,2013-07-09 14:43:00,
2013-07-09 09:53:00,82.0,76.0,30.06,SSW,207,5.0,8.0,82,0.00,,,0.00,,2013-07-09 14:53:00,
2013-07-09 10:02:00,83.0,76.0,30.06,SSW,213,5.0,10.0,80,0.00,,,0.00,,2013-07-09 15:02:00,
2013-07-09 10:12:00,83.0,76.0,30.06,SSW,213,5.0,10.0,80,0.00,,,0.00,,2013-07-09 15:12:00,
2013-07-09 10:22:00,84.0,78.0,30.05,SW,225,4.0,9.0,81,0.00,,,0.00,,2013-07-09 15:22:00,
2013-07-09 10:33:00,85.0,78.0,30.06,SW,223,3.0,9.0,79,0.00,,,0.00,,2013-07-09 15:33:00,
2013-07-09 10:43:00,85.0,78.0,30.06,SW,223,3.0,9.0,79,0.00,,,0.00,,2013-07-09 15:43:00,
2013-07-09 10:52:00,85.0,77.0,30.06,SW,227,5.0,9.0,77,0.00,,,0.00,,2013-07-09 15:52:00,
2013-07-09 11:02:00,86.0,78.0,30.06,SW,228,5.0,11.0,76,0.00,,,0.00,,2013-07-09 16:02:00,
2013-07-09 11:11:00,86.0,78.0,30.06,SW,228,5.0,11.0,76,0.00,,,0.00,,2013-07-09 16:11:00,
2013-07-09 11:22:00,86.0,78.0,30.06,SW,220,5.0,10.0,76,0.00,,,0.00,,2013-07-09 16:22:00,
2013-07-09 11:34:00,86.0,78.0,30.06,SSW,198,4.0,11.0,76,0.00,,,0.00,,2013-07-09 16:34:00,
2013-07-09 11:43:00,86.0,78.0,30.06,SSW,198,4.0,11.0,76,0.00,,,0.00,,2013-07-09 16:43:00,
2013-07-09 11:53:00,86.0,78.0,30.05,SW,218,4.0,9.0,77,0.00,,,0.00,,2013-07-09 16:53:00,
2013-07-09 12:02:00,87.0,77.0,30.05,WSW,246,7.0,12.0,72,0.00,,,0.00,,2013-07-09 17:02:00,
2013-07-09 12:11:00,87.0,77.0,30.05,WSW,246,7.0,12.0,72,0.00,,,0.00,,2013-07-09 17:11:00,
2013-07-09 12:22:00,87.0,78.0,30.05,SSW,206,4.0,11.0,74,0.00,,,0.00,,2013-07-09 17:22:00,
2013-07-09 12:35:00,88.0,78.0,30.05,SSW,208,4.0,9.0,73,0.00,,,0.00,,2013-07-09 17:35:00,
2013-07-09 12:45:00,88.0,78.0,30.05,SSW,208,4.0,9.0,73,0.00,,,0.00,,2013-07-09 17:45:00,
2013-07-09 12:53:00,88.0,77.0,30.04,SW,232,6.0,12.0,71,0.00,,,0.00,,2013-07-09 17:53:00,
2013-07-09 13:02:00,89.0,78.0,30.03,SW,229,6.0,11.0,70,0.00,,,0.00,,2013-07-09 18:02:00,
2013-07-09 13:11:00,89.0,78.0,30.03,SW,229,6.0,11.0,70,0.00,,,0.00,,2013-07-09 18:11:00,
2013-07-09 13:22:00,89.0,77.0,30.03,SW,236,6.0,11.0,69,0.00,,,0.00,,2013-07-09 18:22:00,
2013-07-09 13:43:00,89.0,78.0,30.02,SW,214,6.0,12.0,71,0.00,,,0.00,,2013-07-09 18:43:00,
2013-07-09 13:52:00,90.0,79.0,30.02,SSW,200,6.0,13.0,71,0.00,,,0.00,,2013-07-09 18:52:00,
2013-07-09 14:01:00,90.0,77.0,30.01,SW,229,8.0,12.0,65,0.00,,,0.00,,2013-07-09 19:01:00,
2013-07-09 14:11:00,90.0,77.0,30.01,SW,229,8.0,12.0,65,0.00,,,0.00,,2013-07-09 19:11:00,
2013-07-09 14:22:00,90.0,78.0,30.01,SSW,203,4.0,14.0,67,0.00,,,0.00,,2013-07-09 19:22:00,
2013-07-09 14:33:00,90.0,77.0,30.01,SW,229,8.0,14.0,65,0.00,,,0.00,,2013-07-09 19:33:00,
2013-07-09 14:42:00,90.0,77.0,30.01,SW,229,8.0,14.0,65,0.00,,,0.00,,2013-07-09 19:42:00,
2013-07-09 14:52:00,90.0,78.0,30.01,SSW,200,7.0,14.0,67,0.00,,,0.00,,2013-07-09 19:52:00,
2013-07-09 15:01:00,90.0,78.0,30.01,SSW,204,6.0,13.0,67,0.00,,,0.00,,2013-07-09 20:01:00,
2013-07-09 15:11:00,90.0,78.0,30.01,SSW,204,6.0,13.0,67,0.00,,,0.00,,2013-07-09 20:11:00,
2013-07-09 15:22:00,90.0,76.0,30.01,SSW,207,5.0,12.0,64,0.00,,,0.00,,2013-07-09 20:22:00,
2013-07-09 15:32:00,89.0,76.0,30.01,SW,215,5.0,12.0,65,0.00,,,0.00,,2013-07-09 20:32:00,
2013-07-09 15:43:00,89.0,76.0,30.01,SW,215,5.0,12.0,65,0.00,,,0.00,,2013-07-09 20:43:00,
2013-07-09 15:52:00,89.0,77.0,29.99,SW,227,3.0,11.0,69,0.00,,,0.00,,2013-07-09 20:52:00,
2013-07-09 16:01:00,89.0,77.0,29.99,SW,223,5.0,11.0,67,0.00,,,0.00,,2013-07-09 21:01:00,
2013-07-09 16:11:00,89.0,77.0,29.99,SW,223,5.0,11.0,67,0.00,,,0.00,,2013-07-09 21:11:00,
2013-07-09 16:22:00,89.0,76.0,29.98,South,171,7.0,14.0,66,0.00,,,0.00,,2013-07-09 21:22:00,
2013-07-09 16:42:00,90.0,77.0,29.98,SW,234,6.0,10.0,65,0.00,,,0.00,,2013-07-09 21:42:00,
2013-07-09 16:52:00,90.0,76.0,29.97,SW,234,7.0,13.0,63,0.00,,,0.00,,2013-07-09 21:52:00,
2013-07-09 17:01:00,90.0,76.0,29.96,West,264,5.0,11.0,63,0.00,,,0.00,,2013-07-09 22:01:00,
2013-07-09 17:11:00,90.0,76.0,29.96,West,264,5.0,11.0,63,0.00,,,0.00,,2013-07-09 22:11:00,
2013-07-09 17:22:00,91.0,76.0,29.96,SSW,205,6.0,11.0,62,0.00,,,0.00,,2013-07-09 22:22:00,
2013-07-09 17:33:00,90.0,76.0,29.96,SW,228,5.0,12.0,64,0.00,,,0.00,,2013-07-09 22:33:00,
2013-07-09 17:42:00,90.0,76.0,29.96,SW,228,5.0,12.0,64,0.00,,,0.00,,2013-07-09 22:42:00,
2013-07-09 17:53:00,90.0,76.0,29.96,SW,215,5.0,11.0,64,0.00,,,0.00,,2013-07-09 22:53:00,
2013-07-09 18:02:00,89.0,76.0,29.96,SSW,197,4.0,11.0,66,0.00,,,0.00,,2013-07-09 23:02:00,
2013-07-09 18:11:00,89.0,76.0,29.96,SSW,197,4.0,11.0,66,0.00,,,0.00,,2013-07-09 23:11:00,
2013-07-09 18:22:00,88.0,75.0,29.95,SSW,207,4.0,9.0,66,0.00,,,0.00,,2013-07-09 23:22:00,
2013-07-09 18:33:00,88.0,76.0,29.96,SSW,200,4.0,7.0,68,0.00,,,0.00,,2013-07-09 23:33:00,
2013-07-09 18:43:00,88.0,76.0,29.96,SSW,200,4.0,7.0,68,0.00,,,0.00,,2013-07-09 23:43:00,
2013-07-09 18:53:00,87.0,76.0,29.96,SSW,206,3.0,7.0,70,0.00,,,0.00,,2013-07-09 23:53:00,
2013-07-09 19:01:00,87.0,76.0,29.95,South,191,3.0,7.0,71,0.00,,,0.00,,2013-07-10 00:01:00,
2013-07-09 19:11:00,87.0,76.0,29.95,South,191,3.0,7.0,71,0.00,,,0.00,,2013-07-10 00:11:00,
2013-07-09 19:22:00,87.0,76.0,29.95,SW,214,3.0,6.0,71,0.00,,,0.00,,2013-07-10 00:22:00,
2013-07-09 19:33:00,86.0,76.0,29.95,South,178,3.0,7.0,72,0.00,,,0.00,,2013-07-10 00:33:00,
2013-07-09 19:42:00,86.0,76.0,29.95,South,178,3.0,7.0,72,0.00,,,0.00,,2013-07-10 00:42:00,
2013-07-09 19:52:00,85.0,76.0,29.95,SSW,196,1.0,3.0,75,0.00,,,0.00,,2013-07-10 00:52:00,
2013-07-09 20:01:00,84.0,77.0,29.95,South,190,0.0,4.0,79,0.00,,,0.00,,2013-07-10 01:01:00,
2013-07-09 20:11:00,84.0,77.0,29.95,South,190,0.0,4.0,79,0.00,,,0.00,,2013-07-10 01:11:00,
2013-07-09 20:22:00,84.0,77.0,29.96,South,190,1.0,3.0,80,0.00,,,0.00,,2013-07-10 01:22:00,
2013-07-09 20:33:00,83.0,77.0,29.96,South,190,0.0,1.0,82,0.00,,,0.00,,2013-07-10 01:33:00,
2013-07-09 20:43:00,83.0,77.0,29.96,South,190,0.0,1.0,82,0.00,,,0.00,,2013-07-10 01:43:00,
2013-07-09 20:52:00,82.0,76.0,29.96,South,184,0.0,2.0,83,0.00,,,0.00,,2013-07-10 01:52:00,
2013-07-09 21:02:00,82.0,77.0,29.96,South,183,0.0,1.0,84,0.00,,,0.00,,2013-07-10 02:02:00,
2013-07-09 21:11:00,82.0,77.0,29.96,South,183,0.0,1.0,84,0.00,,,0.00,,2013-07-10 02:11:00,
2013-07-09 21:22:00,82.0,77.0,29.96,South,183,0.0,1.0,84,0.00,,,0.00,,2013-07-10 02:22:00,
2013-07-09 21:34:00,82.0,77.0,29.96,South,183,0.0,1.0,84,0.00,,,0.00,,2013-07-10 02:34:00,
2013-07-09 21:43:00,81.0,76.0,29.96,South,183,0.0,2.0,84,0.00,,,0.00,,2013-07-10 02:43:00,
2013-07-09 21:53:00,81.0,76.0,29.96,South,182,1.0,4.0,84,0.00,,,0.00,,2013-07-10 02:53:00,
2013-07-09 22:01:00,82.0,77.0,29.97,South,182,1.0,3.0,84,0.00,,,0.00,,2013-07-10 03:01:00,
2013-07-09 22:12:00,82.0,77.0,29.97,South,182,1.0,3.0,84,0.00,,,0.00,,2013-07-10 03:12:00,
2013-07-09 22:22:00,82.0,76.0,29.96,South,188,2.0,5.0,83,0.00,,,0.00,,2013-07-10 03:22:00,
2013-07-09 22:32:00,82.0,77.0,29.96,South,189,1.0,3.0,84,0.00,,,0.00,,2013-07-10 03:32:00,
2013-07-09 22:43:00,82.0,77.0,29.96,South,189,1.0,3.0,84,0.00,,,0.00,,2013-07-10 03:43:00,
2013-07-09 22:52:00,81.0,76.0,29.96,South,189,0.0,1.0,85,0.00,,,0.00,,2013-07-10 03:52:00,
2013-07-09 23:01:00,80.0,76.0,29.96,South,190,2.0,4.0,87,0.00,,,0.00,,2013-07-10 04:01:00,
2013-07-09 23:11:00,80.0,76.0,29.96,South,190,2.0,4.0,87,0.00,,,0.00,,2013-07-10 04:11:00,
2013-07-09 23:22:00,80.0,76.0,29.96,South,184,2.0,5.0,87,0.00,,,0.00,,2013-07-10 04:22:00,
2013-07-09 23:32:00,80.0,76.0,29.96,South,184,2.0,5.0,87,0.00,,,0.00,,2013-07-10 04:32:00,
2013-07-09 23:43:00,80.0,76.0,29.97,South,184,2.0,5.0,87,0.00,,,0.00,,2013-07-10 04:43:00,
2013-07-09 23:52:00,80.0,76.0,29.96,SSW,192,2.0,6.0,87,0.00,,,0.00,,2013-07-10 04:52:00,